< Typhoon 198613 1986 Season Typhoon 198615 >
Typhoon 198614 (WAYNE)
General InformationTrack Information on Google MapsDetailed Wind InformationList of All Images || Disaster Info.ResourceGoogle EarthGE AnimationAtom FeedGeoJSON
Detalied Best Track (Time Zone = UTC)
Year Month Day Hour Lat. Long. Pressure (hPa) Wind (kt) Class Image Chart
1986 8 16 06 18.0 118.0 1000 0 2 Image Chart
1986 8 16 12 17.5 118.0 996 0 2 Image Chart
1986 8 16 18 17.0 117.5 996 0 2 Image Chart
1986 8 17 00 16.5 117.0 996 0 2 Image Chart
1986 8 17 06 16.0 116.5 996 0 2 Image Chart
1986 8 17 12 15.5 116.5 994 0 2 Image Chart
1986 8 17 18 15.0 117.0 994 0 2 Image Chart
1986 8 18 00 15.5 117.5 994 0 2 Image Chart
1986 8 18 06 16.0 117.5 990 40 3 Image Chart
1986 8 18 12 16.5 117.4 990 45 3 Image Chart
1986 8 18 18 16.9 116.5 985 45 3 Image Chart
1986 8 19 00 17.1 115.5 980 50 4 Image Chart
1986 8 19 06 18.0 114.6 975 55 4 Image Chart
1986 8 19 12 18.6 114.2 975 60 4 Image Chart
1986 8 19 18 19.0 113.7 975 60 4 Image Chart
1986 8 20 00 19.7 113.4 970 65 5 Image Chart
1986 8 20 06 20.5 113.7 970 65 5 Image Chart
1986 8 20 12 21.2 114.3 965 65 5 Image Chart
1986 8 20 18 21.7 115.1 965 55 4 Image Chart
1986 8 21 00 22.2 115.9 960 65 5 Image Chart
1986 8 21 06 22.7 117.0 955 70 5 Image Chart
1986 8 21 12 23.1 118.2 955 75 5 Image Chart
1986 8 21 18 23.6 119.2 955 75 5 Image Chart
1986 8 22 00 24.0 120.6 960 65 5 Image Chart
1986 8 22 06 24.6 122.0 975 60 4 Image Chart
1986 8 22 12 25.1 123.2 980 55 4 Image Chart
1986 8 22 18 25.1 124.2 985 60 4 Image Chart
1986 8 23 00 24.5 124.6 990 50 4 Image Chart
1986 8 23 06 24.4 125.0 990 45 3 Image Chart
1986 8 23 12 24.3 124.7 985 45 3 Image Chart
1986 8 23 18 23.7 123.8 985 50 4 Image Chart
1986 8 24 00 23.2 123.4 985 55 4 Image Chart
1986 8 24 06 22.6 122.6 985 55 4 Image Chart
1986 8 24 12 21.6 121.6 990 50 4 Image Chart
1986 8 24 18 21.2 120.0 990 45 3 Image Chart
1986 8 25 00 21.2 118.7 992 40 3 Image Chart
1986 8 25 06 20.7 117.7 992 40 3 Image Chart
1986 8 25 12 20.0 116.8 992 40 3 Image Chart
1986 8 25 18 19.5 116.0 994 40 3 Image Chart
1986 8 26 00 19.0 115.3 996 0 2 Image Chart
1986 8 26 06 18.7 114.7 996 0 2 Image Chart
1986 8 26 12 18.5 114.0 996 0 2 Image Chart
1986 8 26 18 18.0 115.0 996 0 2 Image Chart
1986 8 27 00 18.0 116.0 994 0 2 Image Chart
1986 8 27 06 18.0 117.0 994 0 2 Image Chart
1986 8 27 12 18.2 117.9 994 40 3 Image Chart
1986 8 27 18 18.4 118.9 994 40 3 Image Chart
1986 8 28 00 19.0 119.7 994 40 3 Image Chart
1986 8 28 06 19.4 120.1 992 40 3 Image Chart
1986 8 28 12 19.7 120.5 992 40 3 Image Chart
1986 8 28 18 20.2 120.8 992 40 3 Image Chart
1986 8 29 00 20.5 121.1 992 40 3 Image Chart
1986 8 29 06 20.7 121.2 992 45 3 Image Chart
1986 8 29 12 20.8 121.3 990 45 3 Image Chart
1986 8 29 18 21.0 121.4 990 45 3 Image Chart
1986 8 30 00 21.2 121.7 985 50 4 Image Chart
1986 8 30 06 21.7 122.2 980 50 4 Image Chart
1986 8 30 12 21.7 122.4 975 55 4 Image Chart
1986 8 30 18 21.7 122.7 960 60 4 Image Chart
1986 8 31 00 21.8 122.9 955 65 5 Image Chart
1986 8 31 06 21.8 123.1 960 70 5 Image Chart
1986 8 31 12 21.6 123.2 965 65 5 Image Chart
1986 8 31 18 21.4 123.3 970 65 5 Image Chart
1986 9 1 00 21.3 123.2 975 65 5 Image Chart
1986 9 1 06 20.9 122.7 970 65 5 Image Chart
1986 9 1 12 20.4 122.4 965 65 5 Image Chart
1986 9 1 18 20.0 122.2 965 70 5 Image Chart
1986 9 2 00 19.6 122.1 960 70 5 Image Chart
1986 9 2 06 19.2 121.9 960 70 5 Image Chart
1986 9 2 12 19.0 121.4 965 70 5 Image Chart
1986 9 2 18 18.9 120.7 970 70 5 Image Chart
1986 9 3 00 18.8 120.1 970 65 5 Image Chart
1986 9 3 06 18.5 119.4 970 60 4 Image Chart
1986 9 3 12 18.3 118.5 970 60 4 Image Chart
1986 9 3 18 18.6 117.6 960 65 5 Image Chart
1986 9 4 00 18.9 116.8 955 75 5 Image Chart
1986 9 4 06 19.4 115.3 955 75 5 Image Chart
1986 9 4 12 19.6 113.6 960 75 5 Image Chart
1986 9 4 18 19.6 112.4 960 70 5 Image Chart
1986 9 5 00 19.9 111.4 960 65 5 Image Chart
1986 9 5 06 20.3 109.3 965 65 5 Image Chart
1986 9 5 12 20.4 108.4 965 65 5 Image Chart
1986 9 5 18 20.7 106.8 965 65 5 Image Chart
1986 9 6 00 20.2 105.0 975 60 4 Image Chart
1986 9 6 06 20.0 103.4 985 45 3 Image Chart
1986 9 6 12 19.7 101.4 996 0 2 Image Chart
1986 9 6 18 19.0 100.0 1002 0 2 Image Chart
1986 9 7 00 19.0 99.0 1002 0 2 Image Chart
Japan Meteorological Agency Best Track Data | Correction Date : 1992-10-21
< Typhoon 198613 1986 Season Typhoon 198615 >

Help